createdAt,value
2023-01-27T00:01:31.614Z,21.73
2023-01-27T00:03:59.684Z,26.58
2023-01-27T00:06:29.727Z,18.67
2023-01-27T00:08:57.635Z,17.10
2023-01-27T00:11:44.378Z,27.08
2023-01-27T00:14:12.346Z,20.52
2023-01-27T00:16:41.773Z,20.38
2023-01-27T00:19:09.737Z,21.58
2023-01-27T00:21:58.062Z,17.00
2023-01-27T00:24:38.276Z,16.90
2023-01-27T00:27:11.169Z,18.45
2023-01-27T00:29:41.064Z,16.45
2023-01-27T00:32:29.100Z,16.83
2023-01-27T00:34:57.582Z,15.02
2023-01-27T00:37:26.848Z,16.88
2023-01-27T00:39:54.873Z,20.40
2023-01-27T00:42:23.294Z,30.75
2023-01-27T00:45:09.739Z,22.65
2023-01-27T00:47:38.134Z,19.60
2023-01-27T00:50:06.755Z,20.10
2023-01-27T00:52:34.971Z,22.65
2023-01-27T00:55:02.910Z,17.30
2023-01-27T00:57:50.038Z,19.73
2023-01-27T01:00:18.189Z,23.08
2023-01-27T01:02:46.484Z,19.23
2023-01-27T01:05:14.716Z,22.92
2023-01-27T01:07:42.971Z,20.55
2023-01-27T01:10:12.160Z,24.40
2023-01-27T01:12:40.525Z,16.90
2023-01-27T01:15:09.003Z,19.38
2023-01-27T01:17:37.235Z,15.38
2023-01-27T01:20:05.552Z,15.73
2023-01-27T01:22:33.856Z,18.60
2023-01-27T01:25:02.355Z,19.95
2023-01-27T01:27:31.030Z,18.33
2023-01-27T01:29:59.000Z,23.20
2023-01-27T01:32:28.414Z,15.95
2023-01-27T01:34:56.434Z,16.98
2023-01-27T01:37:25.696Z,22.27
2023-01-27T01:39:53.612Z,14.35
2023-01-27T01:42:21.904Z,18.52
2023-01-27T01:45:12.288Z,16.48
2023-01-27T01:47:40.544Z,17.25
2023-01-27T01:50:08.834Z,20.23
2023-01-27T01:52:37.362Z,13.70
2023-01-27T01:55:05.555Z,18.02
2023-01-27T01:57:37.868Z,14.02
2023-01-27T02:00:08.076Z,16.58
2023-01-27T02:02:43.686Z,16.38
2023-01-27T02:05:19.655Z,16.38
2023-01-27T02:08:03.244Z,16.35
2023-01-27T02:10:33.588Z,19.30
2023-01-27T02:13:02.590Z,16.48
2023-01-27T02:15:31.811Z,20.15
2023-01-27T02:18:02.018Z,15.35
2023-01-27T02:20:41.547Z,20.35
2023-01-27T02:23:09.735Z,16.00
2023-01-27T02:26:06.882Z,17.63
2023-01-27T02:28:35.307Z,17.58
2023-01-27T02:31:03.428Z,14.93
2023-01-27T02:33:33.042Z,16.15
2023-01-27T02:36:10.007Z,16.83
2023-01-27T02:38:46.495Z,19.60
2023-01-27T02:41:30.029Z,20.35
2023-01-27T02:43:58.638Z,23.95
2023-01-27T02:46:27.030Z,22.98
2023-01-27T02:48:55.416Z,21.40
2023-01-27T02:51:23.989Z,21.23
2023-01-27T02:53:52.447Z,22.90
2023-01-27T02:56:21.625Z,19.75
2023-01-27T02:58:49.915Z,18.10
2023-01-27T03:01:25.568Z,21.83
2023-01-27T03:03:54.877Z,26.58
2023-01-27T03:06:22.757Z,21.20
2023-01-27T03:08:51.134Z,22.88
2023-01-27T03:11:39.294Z,22.30
2023-01-27T03:14:09.252Z,19.42
2023-01-27T03:16:56.161Z,18.55
2023-01-27T03:19:24.514Z,21.52
2023-01-27T03:21:53.942Z,17.52
2023-01-27T03:24:23.406Z,18.10
2023-01-27T03:26:53.535Z,18.85
2023-01-27T03:29:47.264Z,23.35
2023-01-27T03:32:15.417Z,24.63
2023-01-27T03:34:58.134Z,16.70
2023-01-27T03:37:51.445Z,19.02
2023-01-27T03:40:38.494Z,20.17
2023-01-27T03:43:24.765Z,19.05
2023-01-27T03:46:12.806Z,23.13
2023-01-27T03:48:40.778Z,18.77
2023-01-27T03:51:10.564Z,25.35
2023-01-27T03:53:38.775Z,20.85
2023-01-27T03:56:08.295Z,17.35
2023-01-27T03:58:37.916Z,17.88
2023-01-27T04:01:12.705Z,19.38
2023-01-27T04:04:00.157Z,22.08
2023-01-27T04:06:52.343Z,16.80
2023-01-27T04:09:32.012Z,18.95
2023-01-27T04:12:05.575Z,18.33
2023-01-27T04:14:36.015Z,15.23
2023-01-27T04:17:12.874Z,17.08
2023-01-27T04:19:41.205Z,15.45
2023-01-27T04:22:11.935Z,16.52
2023-01-27T04:24:40.214Z,16.33
2023-01-27T04:27:11.394Z,16.33
2023-01-27T04:29:41.439Z,19.35
2023-01-27T04:32:13.208Z,20.75
2023-01-27T04:34:42.890Z,13.30
2023-01-27T04:37:11.373Z,17.70
2023-01-27T04:39:39.304Z,18.75
2023-01-27T04:42:07.565Z,16.08
2023-01-27T04:44:35.504Z,14.20
2023-01-27T04:47:03.825Z,15.20
2023-01-27T04:49:31.782Z,16.48
2023-01-27T04:51:59.983Z,18.98
2023-01-27T04:54:27.833Z,14.77
2023-01-27T04:57:03.960Z,16.77
2023-01-27T04:59:31.956Z,14.93
2023-01-27T05:02:00.306Z,14.35
2023-01-27T05:04:28.344Z,14.43
2023-01-27T05:06:56.720Z,11.45
2023-01-27T05:09:24.793Z,14.63
2023-01-27T05:11:54.269Z,16.10
2023-01-27T05:14:23.870Z,16.30
2023-01-27T05:16:52.352Z,13.05
2023-01-27T05:19:20.366Z,17.85
2023-01-27T05:21:48.708Z,14.45
2023-01-27T05:24:16.754Z,22.20
2023-01-27T05:26:45.168Z,13.15
2023-01-27T05:29:13.259Z,16.25
2023-01-27T05:31:41.643Z,16.42
2023-01-27T05:34:10.068Z,12.18
2023-01-27T05:36:52.860Z,16.30
2023-01-27T05:39:21.226Z,17.27
2023-01-27T05:41:49.427Z,18.40
2023-01-27T05:44:18.744Z,17.73
2023-01-27T05:46:46.653Z,12.98
2023-01-27T05:49:15.967Z,15.88
2023-01-27T05:51:43.995Z,14.48
2023-01-27T05:54:12.256Z,14.43
2023-01-27T05:56:40.923Z,18.90
2023-01-27T05:59:11.258Z,20.33
2023-01-27T06:01:39.922Z,13.50
2023-01-27T06:04:09.608Z,17.25
2023-01-27T06:06:37.605Z,15.35
2023-01-27T06:09:06.464Z,18.50
2023-01-27T06:11:34.522Z,13.95
2023-01-27T06:14:02.874Z,12.43
2023-01-27T06:16:30.975Z,14.05
2023-01-27T06:19:00.042Z,14.40
2023-01-27T06:21:28.125Z,16.55
2023-01-27T06:23:58.411Z,21.23
2023-01-27T06:26:26.729Z,18.08
2023-01-27T06:28:58.133Z,14.05
2023-01-27T06:31:28.631Z,11.67
2023-01-27T06:33:56.986Z,14.82
2023-01-27T06:36:25.275Z,12.43
2023-01-27T06:38:53.373Z,13.75
2023-01-27T06:41:21.829Z,18.83
2023-01-27T06:43:49.845Z,14.75
2023-01-27T06:46:18.224Z,14.07
2023-01-27T06:48:46.235Z,13.00
2023-01-27T06:51:15.920Z,15.02
2023-01-27T06:53:43.920Z,12.93
2023-01-27T06:56:12.282Z,17.73
2023-01-27T06:58:40.987Z,16.58
2023-01-27T07:01:09.276Z,17.92
2023-01-27T07:03:37.256Z,20.13
2023-01-27T07:06:06.940Z,15.90
2023-01-27T07:08:34.954Z,16.65
2023-01-27T07:11:05.188Z,16.00
2023-01-27T07:13:33.342Z,14.40
2023-01-27T07:16:01.793Z,15.23
2023-01-27T07:18:30.081Z,14.52
2023-01-27T07:20:58.509Z,14.55
2023-01-27T07:23:26.452Z,18.90
2023-01-27T07:25:54.808Z,11.32
2023-01-27T07:28:22.819Z,22.95
2023-01-27T07:30:51.212Z,15.88
2023-01-27T07:33:19.265Z,18.40
2023-01-27T07:35:50.751Z,15.40
2023-01-27T07:38:19.022Z,17.27
2023-01-27T07:40:47.349Z,21.63
2023-01-27T07:43:15.397Z,18.63
2023-01-27T07:45:49.131Z,13.23
2023-01-27T07:48:17.101Z,14.45
2023-01-27T07:50:45.529Z,17.83
2023-01-27T07:53:13.731Z,17.80
2023-01-27T07:55:42.226Z,16.77
2023-01-27T07:58:10.355Z,14.43
2023-01-27T08:00:40.161Z,13.57
2023-01-27T08:03:08.286Z,25.20
2023-01-27T08:05:38.593Z,16.77
2023-01-27T08:08:06.766Z,13.60
2023-01-27T08:10:35.036Z,23.80
2023-01-27T08:13:03.057Z,15.82
2023-01-27T08:15:32.188Z,17.08
2023-01-27T08:18:00.284Z,15.75
2023-01-27T08:20:28.924Z,19.70
2023-01-27T08:22:57.180Z,15.27
2023-01-27T08:25:26.013Z,11.75
2023-01-27T08:27:56.589Z,16.23
2023-01-27T08:30:25.444Z,13.82
2023-01-27T08:32:54.395Z,13.85
2023-01-27T08:35:22.698Z,13.35
2023-01-27T08:37:51.898Z,11.75
2023-01-27T08:40:20.842Z,16.20
2023-01-27T08:42:51.230Z,15.20
2023-01-27T08:45:20.577Z,15.63
2023-01-27T08:47:48.495Z,18.75
2023-01-27T08:50:16.963Z,13.52
2023-01-27T08:52:45.357Z,12.77
2023-01-27T08:55:15.673Z,12.90
2023-01-27T08:57:43.903Z,10.70
2023-01-27T09:00:13.819Z,14.18
2023-01-27T09:02:42.159Z,13.98
2023-01-27T09:05:10.533Z,14.07
2023-01-27T09:07:38.483Z,12.02
2023-01-27T09:10:14.635Z,13.43
2023-01-27T09:12:45.144Z,15.30
2023-01-27T09:15:14.568Z,25.90
2023-01-27T09:17:42.819Z,15.73
2023-01-27T09:20:12.471Z,18.25
2023-01-27T09:22:41.901Z,14.07
2023-01-27T09:25:15.979Z,16.83
2023-01-27T09:27:44.694Z,18.02
2023-01-27T09:30:14.766Z,17.83
2023-01-27T09:32:43.172Z,34.13
2023-01-27T09:35:11.902Z,33.08
2023-01-27T09:37:50.229Z,19.95
2023-01-27T09:40:28.867Z,16.92
2023-01-27T09:43:04.804Z,15.88
2023-01-27T09:45:51.550Z,15.07
2023-01-27T09:48:34.303Z,20.70
2023-01-27T09:51:20.295Z,17.92
2023-01-27T09:54:19.695Z,16.25
2023-01-27T09:56:56.652Z,20.52
2023-01-27T09:59:52.277Z,14.43
2023-01-27T10:02:44.795Z,14.18
2023-01-27T10:05:53.092Z,23.88
2023-01-27T10:08:23.924Z,17.17
2023-01-27T10:11:12.722Z,21.52
2023-01-27T10:14:02.372Z,15.20
2023-01-27T10:16:33.266Z,13.45
2023-01-27T10:19:13.248Z,12.85
2023-01-27T10:21:55.101Z,14.30
2023-01-27T10:24:39.566Z,12.30
2023-01-27T10:30:12.940Z,11.13
2023-01-27T10:33:12.848Z,11.25
2023-01-27T10:35:50.795Z,11.27
2023-01-27T10:38:36.316Z,10.88
2023-01-27T10:41:16.673Z,15.02
2023-01-27T10:43:44.571Z,12.30
2023-01-27T10:46:41.614Z,13.10
2023-01-27T10:49:32.614Z,12.70
2023-01-27T10:52:17.282Z,15.30
2023-01-27T10:55:01.062Z,21.52
2023-01-27T11:00:49.213Z,15.35
2023-01-27T11:03:15.178Z,15.18
2023-01-27T11:06:06.421Z,12.40
2023-01-27T11:08:39.912Z,16.38
2023-01-27T11:11:29.314Z,15.55
2023-01-27T11:14:16.522Z,13.32
2023-01-27T11:16:52.091Z,10.98
2023-01-27T11:19:33.154Z,11.20
2023-01-27T11:22:08.908Z,11.98
2023-01-27T11:24:47.466Z,15.45
2023-01-27T11:27:18.172Z,15.55
2023-01-27T11:29:54.296Z,11.68
2023-01-27T11:32:48.882Z,13.50
2023-01-27T11:35:17.426Z,10.13
2023-01-27T11:37:50.784Z,11.68
2023-01-27T11:40:37.982Z,14.63
2023-01-27T11:43:05.970Z,13.45
2023-01-27T11:45:36.672Z,11.38
2023-01-27T11:48:12.556Z,11.07
2023-01-27T11:50:42.587Z,14.10
2023-01-27T11:53:17.614Z,10.35
2023-01-27T11:56:01.030Z,13.88
2023-01-27T11:59:18.135Z,11.83
2023-01-27T12:02:03.231Z,9.02
2023-01-27T12:04:50.129Z,13.00
2023-01-27T12:07:34.465Z,18.85
2023-01-27T12:10:04.064Z,13.50
2023-01-27T12:12:37.476Z,12.48
2023-01-27T12:15:05.884Z,11.55
2023-01-27T12:17:54.596Z,12.82
2023-01-27T12:20:22.473Z,12.38
2023-01-27T12:22:54.594Z,12.57
2023-01-27T12:25:28.230Z,12.75
2023-01-27T12:28:04.228Z,13.05
2023-01-27T12:30:35.101Z,12.52
2023-01-27T12:33:13.513Z,14.32
2023-01-27T12:35:48.302Z,18.40
2023-01-27T12:38:22.461Z,14.80
2023-01-27T12:41:01.265Z,16.30
2023-01-27T12:43:29.702Z,13.75
2023-01-27T12:46:25.968Z,14.73
2023-01-27T12:49:09.827Z,17.10
2023-01-27T12:51:51.417Z,16.80
2023-01-27T12:54:28.550Z,9.50
2023-01-27T12:57:06.030Z,14.38
2023-01-27T12:59:35.854Z,12.90
2023-01-27T13:02:25.424Z,16.17
2023-01-27T13:05:03.830Z,13.90
2023-01-27T13:07:53.650Z,13.80
2023-01-27T13:10:28.064Z,18.45
2023-01-27T13:12:59.530Z,12.32
2023-01-27T13:15:31.401Z,13.43
2023-01-27T13:18:01.446Z,12.55
2023-01-27T13:20:49.999Z,13.35
2023-01-27T13:23:28.126Z,16.88
2023-01-27T13:26:05.495Z,12.88
2023-01-27T13:28:52.099Z,13.65
2023-01-27T13:31:49.248Z,12.15
2023-01-27T13:34:27.343Z,13.35
2023-01-27T13:37:09.607Z,12.18
2023-01-27T13:40:14.933Z,12.40
2023-01-27T13:43:03.080Z,13.98
2023-01-27T13:45:53.564Z,14.93
2023-01-27T13:48:51.313Z,15.77
2023-01-27T13:51:30.442Z,17.42
2023-01-27T13:54:02.437Z,14.18
2023-01-27T13:56:49.843Z,15.85
2023-01-27T13:59:42.023Z,15.00
2023-01-27T14:02:31.242Z,16.88
2023-01-27T14:05:11.448Z,17.85
2023-01-27T14:07:53.936Z,15.57
2023-01-27T14:10:32.653Z,16.83
2023-01-27T14:13:26.892Z,16.45
2023-01-27T14:16:25.456Z,15.32
2023-01-27T14:19:07.392Z,19.13
2023-01-27T14:24:41.525Z,13.40
2023-01-27T14:27:32.258Z,14.50
2023-01-27T14:30:07.898Z,15.02
2023-01-27T14:32:55.887Z,17.25
2023-01-27T14:35:29.382Z,23.40
2023-01-27T14:38:10.102Z,22.05
2023-01-27T14:41:17.264Z,15.25
2023-01-27T14:43:51.986Z,19.55
2023-01-27T14:46:29.590Z,14.23
2023-01-27T14:49:17.035Z,16.25
2023-01-27T14:51:50.993Z,26.50
2023-01-27T14:54:36.103Z,15.00
2023-01-27T14:57:36.168Z,20.08
2023-01-27T15:00:36.106Z,15.55
2023-01-27T15:03:22.134Z,17.42
2023-01-27T15:05:53.024Z,14.65
2023-01-27T15:08:55.194Z,28.63
2023-01-27T15:11:52.153Z,17.20
2023-01-27T15:14:37.967Z,13.50
2023-01-27T15:17:27.901Z,20.75
2023-01-27T15:20:06.647Z,22.23
2023-01-27T15:22:54.891Z,20.98
2023-01-27T15:25:33.464Z,17.33
2023-01-27T15:28:03.192Z,16.65
2023-01-27T15:30:38.264Z,16.27
2023-01-27T15:33:48.263Z,18.10
2023-01-27T15:36:19.848Z,17.20
2023-01-27T15:39:11.365Z,22.95
2023-01-27T15:41:54.545Z,19.63
2023-01-27T15:44:32.902Z,30.50
2023-01-27T15:47:26.743Z,20.88
2023-01-27T15:50:19.345Z,15.88
2023-01-27T15:52:49.464Z,24.50
2023-01-27T15:55:31.785Z,22.50
2023-01-27T15:58:15.139Z,25.58
2023-01-27T16:00:52.698Z,20.10
2023-01-27T16:03:45.096Z,21.67
2023-01-27T16:06:16.483Z,30.65
2023-01-27T16:08:52.618Z,24.85
2023-01-27T16:11:26.759Z,23.05
2023-01-27T16:16:48.540Z,24.92
2023-01-27T16:19:39.220Z,27.90
2023-01-27T16:22:14.559Z,19.38
2023-01-27T16:25:11.764Z,25.40
2023-01-27T16:28:04.544Z,20.98
2023-01-27T16:30:40.255Z,32.17
2023-01-27T16:33:48.647Z,27.92
2023-01-27T16:36:36.702Z,18.80
2023-01-27T16:39:32.135Z,25.25
2023-01-27T16:42:00.453Z,28.88
2023-01-27T16:44:48.895Z,22.85
2023-01-27T16:47:36.797Z,30.73
2023-01-27T16:50:05.658Z,24.55
2023-01-27T16:52:42.203Z,30.15
2023-01-27T16:55:22.565Z,26.27
2023-01-27T16:57:51.895Z,28.98
2023-01-27T17:00:24.164Z,28.67
2023-01-27T17:02:53.953Z,34.13
2023-01-27T17:05:22.989Z,26.00
2023-01-27T17:08:16.714Z,33.28
2023-01-27T17:13:34.572Z,35.17
2023-01-27T17:16:06.512Z,32.95
2023-01-27T17:18:51.755Z,33.95
2023-01-27T17:21:38.567Z,36.95
2023-01-27T17:24:11.638Z,38.53
2023-01-27T17:26:44.354Z,59.55
2023-01-27T17:29:21.419Z,74.63
2023-01-27T17:31:50.259Z,67.70
2023-01-27T17:34:21.173Z,60.17
2023-01-27T17:37:18.268Z,57.95
2023-01-27T17:39:47.762Z,49.53
2023-01-27T17:42:18.717Z,42.22
2023-01-27T17:44:47.905Z,47.67
2023-01-27T17:47:20.508Z,38.78
2023-01-27T17:49:50.854Z,40.83
2023-01-27T17:52:25.039Z,45.03
2023-01-27T17:57:32.891Z,46.60
2023-01-27T18:00:11.766Z,41.45
2023-01-27T18:02:55.419Z,42.90
2023-01-27T18:05:29.219Z,29.40
2023-01-27T18:07:57.542Z,34.83
2023-01-27T18:10:34.149Z,35.47
2023-01-27T18:13:20.381Z,30.58
2023-01-27T18:15:59.510Z,35.08
2023-01-27T18:18:33.660Z,33.15
2023-01-27T18:23:32.765Z,26.45
2023-01-27T18:26:17.111Z,29.95
2023-01-27T18:28:49.074Z,63.28
2023-01-27T18:31:25.430Z,44.97
2023-01-27T18:34:02.448Z,38.08
2023-01-27T18:36:36.410Z,41.38
2023-01-27T18:39:27.536Z,37.35
2023-01-27T18:41:55.886Z,42.95
2023-01-27T18:44:34.624Z,45.38
2023-01-27T18:47:17.942Z,37.28
2023-01-27T18:49:53.608Z,35.83
2023-01-27T18:52:22.149Z,37.28
2023-01-27T18:54:55.641Z,35.70
2023-01-27T18:57:23.579Z,36.40
2023-01-27T18:59:53.041Z,33.88
2023-01-27T19:02:21.198Z,32.65
2023-01-27T19:04:50.994Z,30.20
2023-01-27T19:07:19.763Z,41.55
2023-01-27T19:09:49.242Z,36.03
2023-01-27T19:12:17.209Z,39.22
2023-01-27T19:14:48.183Z,40.97
2023-01-27T19:17:20.167Z,41.22
2023-01-27T19:19:49.896Z,39.30
2023-01-27T19:22:20.174Z,44.17
2023-01-27T19:24:50.696Z,49.38
2023-01-27T19:27:19.617Z,46.97
2023-01-27T19:29:48.409Z,50.75
2023-01-27T19:32:16.440Z,52.90
2023-01-27T19:34:44.812Z,45.72
2023-01-27T19:37:18.971Z,44.78
2023-01-27T19:39:49.203Z,45.05
2023-01-27T19:42:17.303Z,43.95
2023-01-27T19:44:45.835Z,52.22
2023-01-27T19:47:14.044Z,53.03
2023-01-27T19:49:42.509Z,57.78
2023-01-27T19:52:10.510Z,67.30
2023-01-27T19:54:38.692Z,65.75
2023-01-27T19:57:10.353Z,60.85
2023-01-27T19:59:38.634Z,66.57
2023-01-27T20:02:06.541Z,68.00
2023-01-27T20:04:34.777Z,71.72
2023-01-27T20:07:02.758Z,52.90
2023-01-27T20:09:31.045Z,61.50
2023-01-27T20:11:58.971Z,57.55
2023-01-27T20:14:27.329Z,45.72
2023-01-27T20:16:55.355Z,46.03
2023-01-27T20:19:23.865Z,45.35
2023-01-27T20:21:51.965Z,48.83
2023-01-27T20:24:20.674Z,40.63
2023-01-27T20:26:49.837Z,39.03
2023-01-27T20:29:19.948Z,44.05
2023-01-27T20:31:50.504Z,42.05
2023-01-27T20:34:19.026Z,47.88
2023-01-27T20:36:47.765Z,41.88
2023-01-27T20:39:16.224Z,43.75
2023-01-27T20:41:44.956Z,50.47
2023-01-27T20:44:14.032Z,48.08
2023-01-27T20:46:42.943Z,45.80
2023-01-27T20:49:12.408Z,44.25
2023-01-27T20:51:41.354Z,48.22
2023-01-27T20:54:13.213Z,52.60
2023-01-27T20:56:45.043Z,52.83
2023-01-27T20:59:15.454Z,49.63
2023-01-27T21:01:45.464Z,52.25
2023-01-27T21:04:13.846Z,51.05
2023-01-27T21:06:41.859Z,53.72
2023-01-27T21:09:10.194Z,62.22
2023-01-27T21:11:38.179Z,54.35
2023-01-27T21:14:06.535Z,59.35
2023-01-27T21:16:35.320Z,57.33
2023-01-27T21:19:03.852Z,54.38
2023-01-27T21:21:31.855Z,53.13
2023-01-27T21:24:00.584Z,63.58
2023-01-27T21:26:29.347Z,57.83
2023-01-27T21:28:57.652Z,63.53
2023-01-27T21:31:30.530Z,64.50
2023-01-27T21:34:01.923Z,63.67
2023-01-27T21:36:29.941Z,51.83
2023-01-27T21:38:58.454Z,57.38
2023-01-27T21:41:44.920Z,54.17
2023-01-27T21:44:39.008Z,56.47
2023-01-27T21:47:09.750Z,50.75
2023-01-27T21:49:59.909Z,51.45
2023-01-27T21:52:45.978Z,47.17
2023-01-27T21:55:20.399Z,49.17
2023-01-27T21:57:51.082Z,56.42
2023-01-27T22:00:22.954Z,53.42
2023-01-27T22:02:59.012Z,51.42
2023-01-27T22:05:28.968Z,52.35
2023-01-27T22:07:57.291Z,53.80
2023-01-27T22:10:27.919Z,55.67
2023-01-27T22:13:01.645Z,51.85
2023-01-27T22:15:30.818Z,51.88
2023-01-27T22:17:59.415Z,50.22
2023-01-27T22:20:28.446Z,45.30
2023-01-27T22:22:56.560Z,46.40
2023-01-27T22:25:27.561Z,43.15
2023-01-27T22:27:56.366Z,49.55
2023-01-27T22:30:24.766Z,46.83
2023-01-27T22:32:52.721Z,60.53
2023-01-27T22:35:22.333Z,52.83
2023-01-27T22:37:50.413Z,40.80
2023-01-27T22:40:19.215Z,54.72
2023-01-27T22:42:49.044Z,55.58
2023-01-27T22:45:18.234Z,40.65
2023-01-27T22:47:46.629Z,49.88
2023-01-27T22:50:15.199Z,45.67
2023-01-27T22:52:43.059Z,43.17
2023-01-27T22:55:13.318Z,43.17
2023-01-27T22:57:41.566Z,45.50
2023-01-27T23:00:11.479Z,39.83
2023-01-27T23:02:39.643Z,37.35
2023-01-27T23:05:08.404Z,47.88
2023-01-27T23:07:36.334Z,41.00
2023-01-27T23:10:05.075Z,37.30
2023-01-27T23:12:33.129Z,38.88
2023-01-27T23:15:02.830Z,40.22
2023-01-27T23:17:30.897Z,39.05
2023-01-27T23:19:59.166Z,29.42
2023-01-27T23:22:27.273Z,37.63
2023-01-27T23:24:55.498Z,29.30
2023-01-27T23:27:23.520Z,31.90
2023-01-27T23:29:51.818Z,39.25
2023-01-27T23:32:19.731Z,42.70
2023-01-27T23:34:48.484Z,39.72
2023-01-27T23:37:17.014Z,37.92
2023-01-27T23:39:48.883Z,38.35
2023-01-27T23:42:18.301Z,39.08
2023-01-27T23:44:47.457Z,35.08
2023-01-27T23:47:15.972Z,38.65
2023-01-27T23:49:44.224Z,34.67
2023-01-27T23:52:12.362Z,37.58
2023-01-27T23:54:41.730Z,48.67
2023-01-27T23:57:09.731Z,39.30
2023-01-27T23:59:38.089Z,34.53
